sensor_id;sensor_type;location;lat;lon;timestamp;P1;durP1;ratioP1;P2;durP2;ratioP2
43771;SDS011;59066;54.782;32.024;2022-11-20T00:01:21;15.48;;;9.13;;
43771;SDS011;59066;54.782;32.024;2022-11-20T00:03:50;18.33;;;12.02;;
43771;SDS011;59066;54.782;32.024;2022-11-20T00:06:19;14.48;;;9.90;;
43771;SDS011;59066;54.782;32.024;2022-11-20T00:08:47;16.10;;;9.77;;
43771;SDS011;59066;54.782;32.024;2022-11-20T00:11:16;15.10;;;8.95;;
43771;SDS011;59066;54.782;32.024;2022-11-20T00:13:46;16.92;;;11.05;;
43771;SDS011;59066;54.782;32.024;2022-11-20T00:16:15;17.80;;;10.05;;
43771;SDS011;59066;54.782;32.024;2022-11-20T00:18:45;14.38;;;10.23;;
43771;SDS011;59066;54.782;32.024;2022-11-20T00:21:13;17.52;;;10.90;;
43771;SDS011;59066;54.782;32.024;2022-11-20T00:23:45;16.75;;;9.23;;
43771;SDS011;59066;54.782;32.024;2022-11-20T00:26:14;17.17;;;10.93;;
43771;SDS011;59066;54.782;32.024;2022-11-20T00:28:43;15.35;;;8.60;;
43771;SDS011;59066;54.782;32.024;2022-11-20T00:31:15;15.57;;;10.30;;
43771;SDS011;59066;54.782;32.024;2022-11-20T00:33:43;20.00;;;10.85;;
43771;SDS011;59066;54.782;32.024;2022-11-20T00:36:18;15.15;;;8.38;;
43771;SDS011;59066;54.782;32.024;2022-11-20T00:38:51;11.00;;;6.53;;
43771;SDS011;59066;54.782;32.024;2022-11-20T00:41:20;8.50;;;3.90;;
43771;SDS011;59066;54.782;32.024;2022-11-20T00:43:47;10.32;;;5.72;;
43771;SDS011;59066;54.782;32.024;2022-11-20T00:46:16;8.77;;;5.55;;
43771;SDS011;59066;54.782;32.024;2022-11-20T00:48:45;11.63;;;6.35;;
43771;SDS011;59066;54.782;32.024;2022-11-20T00:51:13;13.18;;;7.72;;
43771;SDS011;59066;54.782;32.024;2022-11-20T00:53:42;9.30;;;5.80;;
43771;SDS011;59066;54.782;32.024;2022-11-20T00:56:11;8.50;;;4.93;;
43771;SDS011;59066;54.782;32.024;2022-11-20T00:58:42;9.13;;;3.78;;
43771;SDS011;59066;54.782;32.024;2022-11-20T01:01:12;10.38;;;5.07;;
43771;SDS011;59066;54.782;32.024;2022-11-20T01:03:42;5.00;;;3.47;;
43771;SDS011;59066;54.782;32.024;2022-11-20T01:06:21;7.78;;;4.40;;
43771;SDS011;59066;54.782;32.024;2022-11-20T01:08:50;9.18;;;6.13;;
43771;SDS011;59066;54.782;32.024;2022-11-20T01:11:21;7.43;;;5.07;;
43771;SDS011;59066;54.782;32.024;2022-11-20T01:13:51;7.97;;;5.30;;
43771;SDS011;59066;54.782;32.024;2022-11-20T01:16:21;8.15;;;4.82;;
43771;SDS011;59066;54.782;32.024;2022-11-20T01:18:51;4.95;;;3.47;;
43771;SDS011;59066;54.782;32.024;2022-11-20T01:21:20;5.60;;;3.35;;
43771;SDS011;59066;54.782;32.024;2022-11-20T01:23:55;5.73;;;4.10;;
43771;SDS011;59066;54.782;32.024;2022-11-20T01:26:24;7.97;;;4.80;;
43771;SDS011;59066;54.782;32.024;2022-11-20T01:28:54;8.45;;;3.90;;
43771;SDS011;59066;54.782;32.024;2022-11-20T01:31:23;5.60;;;3.38;;
43771;SDS011;59066;54.782;32.024;2022-11-20T01:33:53;5.75;;;3.13;;
43771;SDS011;59066;54.782;32.024;2022-11-20T01:36:22;8.52;;;4.38;;
43771;SDS011;59066;54.782;32.024;2022-11-20T01:38:51;10.45;;;6.10;;
43771;SDS011;59066;54.782;32.024;2022-11-20T01:41:22;5.93;;;3.05;;
43771;SDS011;59066;54.782;32.024;2022-11-20T01:44:10;7.25;;;4.00;;
43771;SDS011;59066;54.782;32.024;2022-11-20T01:47:16;4.95;;;2.80;;
43771;SDS011;59066;54.782;32.024;2022-11-20T01:49:37;7.93;;;5.55;;
43771;SDS011;59066;54.782;32.024;2022-11-20T01:52:11;7.00;;;4.13;;
43771;SDS011;59066;54.782;32.024;2022-11-20T01:54:45;6.45;;;3.80;;
43771;SDS011;59066;54.782;32.024;2022-11-20T01:57:28;9.70;;;5.00;;
43771;SDS011;59066;54.782;32.024;2022-11-20T02:00:00;7.45;;;4.97;;
43771;SDS011;59066;54.782;32.024;2022-11-20T02:02:37;11.32;;;6.90;;
43771;SDS011;59066;54.782;32.024;2022-11-20T02:07:49;7.38;;;4.22;;
43771;SDS011;59066;54.782;32.024;2022-11-20T02:10:17;8.38;;;4.90;;
43771;SDS011;59066;54.782;32.024;2022-11-20T02:12:44;7.38;;;4.85;;
43771;SDS011;59066;54.782;32.024;2022-11-20T02:15:32;9.57;;;5.25;;
43771;SDS011;59066;54.782;32.024;2022-11-20T02:18:00;8.77;;;4.07;;
43771;SDS011;59066;54.782;32.024;2022-11-20T02:20:27;3.38;;;2.63;;
43771;SDS011;59066;54.782;32.024;2022-11-20T02:25:43;8.88;;;3.90;;
43771;SDS011;59066;54.782;32.024;2022-11-20T02:28:12;9.73;;;5.38;;
43771;SDS011;59066;54.782;32.024;2022-11-20T02:30:40;10.38;;;5.25;;
43771;SDS011;59066;54.782;32.024;2022-11-20T02:33:07;8.50;;;4.68;;
43771;SDS011;59066;54.782;32.024;2022-11-20T02:38:02;7.53;;;4.32;;
43771;SDS011;59066;54.782;32.024;2022-11-20T02:40:30;4.97;;;3.85;;
43771;SDS011;59066;54.782;32.024;2022-11-20T02:42:57;10.60;;;6.28;;
43771;SDS011;59066;54.782;32.024;2022-11-20T02:45:25;8.48;;;5.50;;
43771;SDS011;59066;54.782;32.024;2022-11-20T02:47:52;5.43;;;2.35;;
43771;SDS011;59066;54.782;32.024;2022-11-20T02:50:20;5.50;;;4.13;;
43771;SDS011;59066;54.782;32.024;2022-11-20T02:52:47;10.43;;;6.28;;
43771;SDS011;59066;54.782;32.024;2022-11-20T02:55:15;4.95;;;3.08;;
43771;SDS011;59066;54.782;32.024;2022-11-20T02:57:42;11.13;;;8.65;;
43771;SDS011;59066;54.782;32.024;2022-11-20T03:00:10;7.95;;;4.53;;
43771;SDS011;59066;54.782;32.024;2022-11-20T03:02:37;8.23;;;4.32;;
43771;SDS011;59066;54.782;32.024;2022-11-20T03:05:05;5.00;;;3.13;;
43771;SDS011;59066;54.782;32.024;2022-11-20T03:07:32;8.93;;;5.85;;
43771;SDS011;59066;54.782;32.024;2022-11-20T03:10:00;10.00;;;6.43;;
43771;SDS011;59066;54.782;32.024;2022-11-20T03:12:27;8.05;;;4.88;;
43771;SDS011;59066;54.782;32.024;2022-11-20T03:14:54;7.85;;;4.57;;
43771;SDS011;59066;54.782;32.024;2022-11-20T03:17:21;9.98;;;6.78;;
43771;SDS011;59066;54.782;32.024;2022-11-20T03:19:49;7.47;;;4.55;;
43771;SDS011;59066;54.782;32.024;2022-11-20T03:22:16;8.60;;;5.75;;
43771;SDS011;59066;54.782;32.024;2022-11-20T03:24:43;7.05;;;4.75;;
43771;SDS011;59066;54.782;32.024;2022-11-20T03:27:11;8.07;;;5.82;;
43771;SDS011;59066;54.782;32.024;2022-11-20T03:29:38;7.00;;;4.15;;
43771;SDS011;59066;54.782;32.024;2022-11-20T03:32:05;10.15;;;4.93;;
43771;SDS011;59066;54.782;32.024;2022-11-20T03:34:33;10.50;;;5.85;;
43771;SDS011;59066;54.782;32.024;2022-11-20T03:37:00;9.02;;;4.78;;
43771;SDS011;59066;54.782;32.024;2022-11-20T03:39:27;4.72;;;3.03;;
43771;SDS011;59066;54.782;32.024;2022-11-20T03:41:55;5.68;;;3.50;;
43771;SDS011;59066;54.782;32.024;2022-11-20T03:44:22;9.13;;;5.28;;
43771;SDS011;59066;54.782;32.024;2022-11-20T03:46:49;8.30;;;4.93;;
43771;SDS011;59066;54.782;32.024;2022-11-20T03:49:17;6.82;;;3.63;;
43771;SDS011;59066;54.782;32.024;2022-11-20T03:51:44;9.48;;;4.95;;
43771;SDS011;59066;54.782;32.024;2022-11-20T03:54:12;4.95;;;3.13;;
43771;SDS011;59066;54.782;32.024;2022-11-20T03:56:39;9.48;;;5.82;;
43771;SDS011;59066;54.782;32.024;2022-11-20T03:59:09;5.40;;;4.07;;
43771;SDS011;59066;54.782;32.024;2022-11-20T04:01:37;4.93;;;3.38;;
43771;SDS011;59066;54.782;32.024;2022-11-20T04:04:05;3.72;;;2.50;;
43771;SDS011;59066;54.782;32.024;2022-11-20T04:06:34;4.55;;;3.17;;
43771;SDS011;59066;54.782;32.024;2022-11-20T04:09:03;5.68;;;3.88;;
43771;SDS011;59066;54.782;32.024;2022-11-20T04:11:32;8.25;;;4.05;;
43771;SDS011;59066;54.782;32.024;2022-11-20T04:14:04;6.05;;;3.78;;
43771;SDS011;59066;54.782;32.024;2022-11-20T04:16:34;6.53;;;4.70;;
43771;SDS011;59066;54.782;32.024;2022-11-20T04:19:03;7.55;;;5.22;;
43771;SDS011;59066;54.782;32.024;2022-11-20T04:21:32;5.47;;;3.85;;
43771;SDS011;59066;54.782;32.024;2022-11-20T04:24:00;9.40;;;4.68;;
43771;SDS011;59066;54.782;32.024;2022-11-20T04:26:28;6.90;;;4.32;;
43771;SDS011;59066;54.782;32.024;2022-11-20T04:28:56;6.85;;;3.67;;
43771;SDS011;59066;54.782;32.024;2022-11-20T04:31:25;8.20;;;4.35;;
43771;SDS011;59066;54.782;32.024;2022-11-20T04:33:54;7.40;;;3.90;;
43771;SDS011;59066;54.782;32.024;2022-11-20T04:36:23;6.35;;;3.28;;
43771;SDS011;59066;54.782;32.024;2022-11-20T04:38:55;4.50;;;3.17;;
43771;SDS011;59066;54.782;32.024;2022-11-20T04:41:28;5.75;;;3.42;;
43771;SDS011;59066;54.782;32.024;2022-11-20T04:43:58;11.43;;;5.70;;
43771;SDS011;59066;54.782;32.024;2022-11-20T04:46:30;7.18;;;4.20;;
43771;SDS011;59066;54.782;32.024;2022-11-20T04:48:59;11.13;;;4.75;;
43771;SDS011;59066;54.782;32.024;2022-11-20T04:51:27;8.20;;;3.95;;
43771;SDS011;59066;54.782;32.024;2022-11-20T04:53:55;8.80;;;4.18;;
43771;SDS011;59066;54.782;32.024;2022-11-20T04:56:22;7.30;;;4.78;;
43771;SDS011;59066;54.782;32.024;2022-11-20T04:58:50;8.40;;;4.78;;
43771;SDS011;59066;54.782;32.024;2022-11-20T05:01:18;9.05;;;5.50;;
43771;SDS011;59066;54.782;32.024;2022-11-20T05:03:50;8.73;;;4.57;;
43771;SDS011;59066;54.782;32.024;2022-11-20T05:06:19;5.95;;;3.75;;
43771;SDS011;59066;54.782;32.024;2022-11-20T05:08:48;6.60;;;3.97;;
43771;SDS011;59066;54.782;32.024;2022-11-20T05:11:16;7.93;;;4.57;;
43771;SDS011;59066;54.782;32.024;2022-11-20T05:13:45;9.68;;;6.18;;
43771;SDS011;59066;54.782;32.024;2022-11-20T05:16:14;7.78;;;3.95;;
43771;SDS011;59066;54.782;32.024;2022-11-20T05:18:46;8.15;;;4.55;;
43771;SDS011;59066;54.782;32.024;2022-11-20T05:21:14;10.38;;;4.65;;
43771;SDS011;59066;54.782;32.024;2022-11-20T05:23:42;5.63;;;3.38;;
43771;SDS011;59066;54.782;32.024;2022-11-20T05:26:16;5.05;;;3.53;;
43771;SDS011;59066;54.782;32.024;2022-11-20T05:28:45;8.13;;;4.28;;
43771;SDS011;59066;54.782;32.024;2022-11-20T05:31:14;2.70;;;2.50;;
43771;SDS011;59066;54.782;32.024;2022-11-20T05:33:51;7.63;;;4.15;;
43771;SDS011;59066;54.782;32.024;2022-11-20T05:36:19;5.22;;;3.78;;
43771;SDS011;59066;54.782;32.024;2022-11-20T05:38:46;8.60;;;5.47;;
43771;SDS011;59066;54.782;32.024;2022-11-20T05:41:17;10.23;;;6.25;;
43771;SDS011;59066;54.782;32.024;2022-11-20T05:43:46;11.68;;;6.50;;
43771;SDS011;59066;54.782;32.024;2022-11-20T05:46:16;9.10;;;5.80;;
43771;SDS011;59066;54.782;32.024;2022-11-20T05:48:50;10.13;;;6.72;;
43771;SDS011;59066;54.782;32.024;2022-11-20T05:51:18;8.45;;;4.82;;
43771;SDS011;59066;54.782;32.024;2022-11-20T05:53:46;7.80;;;5.43;;
43771;SDS011;59066;54.782;32.024;2022-11-20T05:56:18;10.02;;;7.05;;
43771;SDS011;59066;54.782;32.024;2022-11-20T05:58:47;7.75;;;4.68;;
43771;SDS011;59066;54.782;32.024;2022-11-20T06:01:19;9.68;;;6.28;;
43771;SDS011;59066;54.782;32.024;2022-11-20T06:03:49;13.00;;;5.93;;
43771;SDS011;59066;54.782;32.024;2022-11-20T06:06:17;6.82;;;4.05;;
43771;SDS011;59066;54.782;32.024;2022-11-20T06:08:46;7.55;;;4.00;;
43771;SDS011;59066;54.782;32.024;2022-11-20T06:11:14;6.63;;;4.75;;
43771;SDS011;59066;54.782;32.024;2022-11-20T06:13:42;8.88;;;5.50;;
43771;SDS011;59066;54.782;32.024;2022-11-20T06:16:11;9.57;;;6.70;;
43771;SDS011;59066;54.782;32.024;2022-11-20T06:18:41;9.15;;;5.05;;
43771;SDS011;59066;54.782;32.024;2022-11-20T06:21:15;6.10;;;3.85;;
43771;SDS011;59066;54.782;32.024;2022-11-20T06:23:45;5.22;;;3.50;;
43771;SDS011;59066;54.782;32.024;2022-11-20T06:26:14;11.77;;;5.75;;
43771;SDS011;59066;54.782;32.024;2022-11-20T06:28:44;6.03;;;3.78;;
43771;SDS011;59066;54.782;32.024;2022-11-20T06:31:12;12.70;;;7.53;;
43771;SDS011;59066;54.782;32.024;2022-11-20T06:33:41;13.75;;;8.05;;
43771;SDS011;59066;54.782;32.024;2022-11-20T06:36:10;6.20;;;3.53;;
43771;SDS011;59066;54.782;32.024;2022-11-20T06:38:38;8.10;;;4.75;;
43771;SDS011;59066;54.782;32.024;2022-11-20T06:41:07;10.45;;;8.55;;
43771;SDS011;59066;54.782;32.024;2022-11-20T06:43:37;10.05;;;6.43;;
43771;SDS011;59066;54.782;32.024;2022-11-20T06:46:04;13.15;;;8.43;;
43771;SDS011;59066;54.782;32.024;2022-11-20T06:48:32;8.63;;;5.40;;
43771;SDS011;59066;54.782;32.024;2022-11-20T06:50:59;9.75;;;4.90;;
43771;SDS011;59066;54.782;32.024;2022-11-20T06:53:29;11.00;;;5.15;;
43771;SDS011;59066;54.782;32.024;2022-11-20T06:55:57;11.00;;;5.38;;
43771;SDS011;59066;54.782;32.024;2022-11-20T06:58:27;5.22;;;3.42;;
43771;SDS011;59066;54.782;32.024;2022-11-20T07:01:00;7.88;;;4.75;;
43771;SDS011;59066;54.782;32.024;2022-11-20T07:03:38;7.95;;;4.22;;
43771;SDS011;59066;54.782;32.024;2022-11-20T07:06:06;6.47;;;3.88;;
43771;SDS011;59066;54.782;32.024;2022-11-20T07:08:35;9.65;;;5.88;;
43771;SDS011;59066;54.782;32.024;2022-11-20T07:11:04;3.47;;;2.40;;
43771;SDS011;59066;54.782;32.024;2022-11-20T07:13:33;5.63;;;3.45;;
43771;SDS011;59066;54.782;32.024;2022-11-20T07:16:03;12.35;;;6.97;;
43771;SDS011;59066;54.782;32.024;2022-11-20T07:18:33;7.20;;;4.63;;
43771;SDS011;59066;54.782;32.024;2022-11-20T07:21:04;12.95;;;8.05;;
43771;SDS011;59066;54.782;32.024;2022-11-20T07:23:33;11.18;;;6.93;;
43771;SDS011;59066;54.782;32.024;2022-11-20T07:26:05;4.82;;;3.47;;
43771;SDS011;59066;54.782;32.024;2022-11-20T07:28:33;7.40;;;3.60;;
43771;SDS011;59066;54.782;32.024;2022-11-20T07:31:00;8.63;;;5.38;;
43771;SDS011;59066;54.782;32.024;2022-11-20T07:33:28;7.25;;;4.90;;
43771;SDS011;59066;54.782;32.024;2022-11-20T07:35:57;6.35;;;3.33;;
43771;SDS011;59066;54.782;32.024;2022-11-20T07:38:26;9.15;;;5.45;;
43771;SDS011;59066;54.782;32.024;2022-11-20T07:40:54;9.30;;;5.70;;
43771;SDS011;59066;54.782;32.024;2022-11-20T07:43:23;8.70;;;5.05;;
43771;SDS011;59066;54.782;32.024;2022-11-20T07:45:51;7.38;;;4.97;;
43771;SDS011;59066;54.782;32.024;2022-11-20T07:48:21;6.15;;;3.75;;
43771;SDS011;59066;54.782;32.024;2022-11-20T07:50:49;11.23;;;6.40;;
43771;SDS011;59066;54.782;32.024;2022-11-20T07:53:16;10.55;;;6.13;;
43771;SDS011;59066;54.782;32.024;2022-11-20T07:55:47;13.85;;;7.57;;
43771;SDS011;59066;54.782;32.024;2022-11-20T07:58:15;12.82;;;8.13;;
43771;SDS011;59066;54.782;32.024;2022-11-20T08:00:42;11.00;;;6.95;;
43771;SDS011;59066;54.782;32.024;2022-11-20T08:03:10;14.02;;;7.63;;
43771;SDS011;59066;54.782;32.024;2022-11-20T08:05:37;13.48;;;8.10;;
43771;SDS011;59066;54.782;32.024;2022-11-20T08:08:04;9.20;;;5.18;;
43771;SDS011;59066;54.782;32.024;2022-11-20T08:10:33;11.07;;;7.75;;
43771;SDS011;59066;54.782;32.024;2022-11-20T08:13:00;10.65;;;5.50;;
43771;SDS011;59066;54.782;32.024;2022-11-20T08:15:49;8.15;;;4.95;;
43771;SDS011;59066;54.782;32.024;2022-11-20T08:18:17;11.43;;;6.72;;
43771;SDS011;59066;54.782;32.024;2022-11-20T08:21:03;12.48;;;7.43;;
43771;SDS011;59066;54.782;32.024;2022-11-20T08:23:31;12.32;;;6.80;;
43771;SDS011;59066;54.782;32.024;2022-11-20T08:25:58;9.00;;;5.60;;
43771;SDS011;59066;54.782;32.024;2022-11-20T08:28:26;11.70;;;6.78;;
43771;SDS011;59066;54.782;32.024;2022-11-20T08:30:57;12.23;;;6.88;;
43771;SDS011;59066;54.782;32.024;2022-11-20T08:33:28;11.90;;;6.35;;
43771;SDS011;59066;54.782;32.024;2022-11-20T08:36:00;13.80;;;8.50;;
43771;SDS011;59066;54.782;32.024;2022-11-20T08:38:32;12.23;;;6.07;;
43771;SDS011;59066;54.782;32.024;2022-11-20T08:41:00;12.10;;;6.20;;
43771;SDS011;59066;54.782;32.024;2022-11-20T08:43:47;11.70;;;6.55;;
43771;SDS011;59066;54.782;32.024;2022-11-20T08:46:15;11.15;;;6.50;;
43771;SDS011;59066;54.782;32.024;2022-11-20T08:48:43;12.80;;;8.02;;
43771;SDS011;59066;54.782;32.024;2022-11-20T08:51:11;13.27;;;7.82;;
43771;SDS011;59066;54.782;32.024;2022-11-20T08:53:39;12.52;;;6.45;;
43771;SDS011;59066;54.782;32.024;2022-11-20T08:56:07;10.15;;;6.38;;
43771;SDS011;59066;54.782;32.024;2022-11-20T08:58:34;17.10;;;8.10;;
43771;SDS011;59066;54.782;32.024;2022-11-20T09:01:22;17.02;;;8.23;;
43771;SDS011;59066;54.782;32.024;2022-11-20T09:03:50;15.98;;;9.27;;
43771;SDS011;59066;54.782;32.024;2022-11-20T09:06:17;12.05;;;6.40;;
43771;SDS011;59066;54.782;32.024;2022-11-20T09:08:45;11.90;;;7.15;;
43771;SDS011;59066;54.782;32.024;2022-11-20T09:11:12;14.63;;;8.77;;
43771;SDS011;59066;54.782;32.024;2022-11-20T09:13:39;13.73;;;8.95;;
43771;SDS011;59066;54.782;32.024;2022-11-20T09:16:07;11.35;;;6.80;;
43771;SDS011;59066;54.782;32.024;2022-11-20T09:18:36;12.40;;;7.50;;
43771;SDS011;59066;54.782;32.024;2022-11-20T09:21:05;12.02;;;7.28;;
43771;SDS011;59066;54.782;32.024;2022-11-20T09:23:37;10.05;;;7.28;;
43771;SDS011;59066;54.782;32.024;2022-11-20T09:26:06;13.65;;;8.23;;
43771;SDS011;59066;54.782;32.024;2022-11-20T09:28:35;11.32;;;6.05;;
43771;SDS011;59066;54.782;32.024;2022-11-20T09:31:11;12.93;;;6.95;;
43771;SDS011;59066;54.782;32.024;2022-11-20T09:33:48;15.15;;;8.18;;
43771;SDS011;59066;54.782;32.024;2022-11-20T09:36:15;13.95;;;7.40;;
43771;SDS011;59066;54.782;32.024;2022-11-20T09:38:45;11.75;;;7.25;;
43771;SDS011;59066;54.782;32.024;2022-11-20T09:57:21;12.80;;;7.70;;
43771;SDS011;59066;54.782;32.024;2022-11-20T10:04:59;16.42;;;7.75;;
43771;SDS011;59066;54.782;32.024;2022-11-20T10:16:32;12.82;;;7.82;;
43771;SDS011;59066;54.782;32.024;2022-11-20T10:19:23;14.32;;;8.07;;
43771;SDS011;59066;54.782;32.024;2022-11-20T10:27:35;16.90;;;12.23;;
43771;SDS011;59066;54.782;32.024;2022-11-20T10:30:25;13.98;;;8.88;;
43771;SDS011;59066;54.782;32.024;2022-11-20T10:33:13;15.70;;;9.85;;
43771;SDS011;59066;54.782;32.024;2022-11-20T10:35:51;13.13;;;9.43;;
43771;SDS011;59066;54.782;32.024;2022-11-20T10:38:37;14.43;;;9.30;;
43771;SDS011;59066;54.782;32.024;2022-11-20T10:41:11;16.42;;;11.93;;
43771;SDS011;59066;54.782;32.024;2022-11-20T10:44:19;11.90;;;8.25;;
43771;SDS011;59066;54.782;32.024;2022-11-20T10:47:12;16.30;;;10.18;;
43771;SDS011;59066;54.782;32.024;2022-11-20T10:49:48;16.20;;;10.13;;
43771;SDS011;59066;54.782;32.024;2022-11-20T10:55:17;14.40;;;9.25;;
43771;SDS011;59066;54.782;32.024;2022-11-20T10:57:55;14.00;;;8.45;;
43771;SDS011;59066;54.782;32.024;2022-11-20T11:00:30;13.20;;;8.93;;
43771;SDS011;59066;54.782;32.024;2022-11-20T11:02:58;15.30;;;13.80;;
43771;SDS011;59066;54.782;32.024;2022-11-20T11:05:39;10.15;;;7.63;;
43771;SDS011;59066;54.782;32.024;2022-11-20T11:08:13;13.55;;;8.88;;
43771;SDS011;59066;54.782;32.024;2022-11-20T11:10:53;13.90;;;8.77;;
43771;SDS011;59066;54.782;32.024;2022-11-20T11:13:24;15.25;;;8.93;;
43771;SDS011;59066;54.782;32.024;2022-11-20T11:15:56;12.70;;;8.98;;
43771;SDS011;59066;54.782;32.024;2022-11-20T11:18:24;13.20;;;10.02;;
43771;SDS011;59066;54.782;32.024;2022-11-20T11:20:55;14.13;;;9.88;;
43771;SDS011;59066;54.782;32.024;2022-11-20T11:23:34;15.35;;;9.77;;
43771;SDS011;59066;54.782;32.024;2022-11-20T11:26:07;26.20;;;12.43;;
43771;SDS011;59066;54.782;32.024;2022-11-20T11:28:55;24.58;;;12.40;;
43771;SDS011;59066;54.782;32.024;2022-11-20T11:31:31;15.63;;;10.25;;
43771;SDS011;59066;54.782;32.024;2022-11-20T11:34:03;15.20;;;10.10;;
43771;SDS011;59066;54.782;32.024;2022-11-20T11:36:39;13.52;;;9.38;;
43771;SDS011;59066;54.782;32.024;2022-11-20T11:39:15;15.73;;;9.55;;
43771;SDS011;59066;54.782;32.024;2022-11-20T11:41:46;16.05;;;10.98;;
43771;SDS011;59066;54.782;32.024;2022-11-20T11:44:17;13.13;;;9.07;;
43771;SDS011;59066;54.782;32.024;2022-11-20T11:47:25;13.60;;;8.57;;
43771;SDS011;59066;54.782;32.024;2022-11-20T11:50:01;15.05;;;10.68;;
43771;SDS011;59066;54.782;32.024;2022-11-20T11:52:40;19.42;;;10.25;;
43771;SDS011;59066;54.782;32.024;2022-11-20T11:55:09;11.63;;;8.80;;
43771;SDS011;59066;54.782;32.024;2022-11-20T11:57:48;15.70;;;9.13;;
43771;SDS011;59066;54.782;32.024;2022-11-20T12:00:21;20.45;;;10.38;;
43771;SDS011;59066;54.782;32.024;2022-11-20T12:03:12;13.23;;;9.43;;
43771;SDS011;59066;54.782;32.024;2022-11-20T12:05:45;13.02;;;8.05;;
43771;SDS011;59066;54.782;32.024;2022-11-20T12:08:18;15.60;;;8.38;;
43771;SDS011;59066;54.782;32.024;2022-11-20T12:10:58;14.85;;;9.35;;
43771;SDS011;59066;54.782;32.024;2022-11-20T12:16:17;11.55;;;8.00;;
43771;SDS011;59066;54.782;32.024;2022-11-20T12:18:50;14.85;;;10.35;;
43771;SDS011;59066;54.782;32.024;2022-11-20T12:21:20;11.57;;;8.30;;
43771;SDS011;59066;54.782;32.024;2022-11-20T12:29:32;11.25;;;8.23;;
43771;SDS011;59066;54.782;32.024;2022-11-20T12:40:35;14.35;;;9.40;;
43771;SDS011;59066;54.782;32.024;2022-11-20T12:43:14;12.02;;;8.40;;
43771;SDS011;59066;54.782;32.024;2022-11-20T12:51:37;12.20;;;8.30;;
43771;SDS011;59066;54.782;32.024;2022-11-20T12:56:55;11.68;;;7.85;;
43771;SDS011;59066;54.782;32.024;2022-11-20T12:59:50;15.60;;;8.43;;
43771;SDS011;59066;54.782;32.024;2022-11-20T13:07:47;10.85;;;6.90;;
43771;SDS011;59066;54.782;32.024;2022-11-20T13:10:22;14.00;;;8.43;;
43771;SDS011;59066;54.782;32.024;2022-11-20T13:18:22;13.73;;;7.70;;
43771;SDS011;59066;54.782;32.024;2022-11-20T13:20:50;11.38;;;7.20;;
43771;SDS011;59066;54.782;32.024;2022-11-20T13:23:25;14.63;;;8.75;;
43771;SDS011;59066;54.782;32.024;2022-11-20T13:26:04;12.95;;;8.20;;
43771;SDS011;59066;54.782;32.024;2022-11-20T13:28:45;14.98;;;8.57;;
43771;SDS011;59066;54.782;32.024;2022-11-20T13:31:25;13.88;;;8.25;;
43771;SDS011;59066;54.782;32.024;2022-11-20T13:33:57;17.80;;;8.15;;
43771;SDS011;59066;54.782;32.024;2022-11-20T13:36:27;13.98;;;7.47;;
43771;SDS011;59066;54.782;32.024;2022-11-20T13:38:55;14.57;;;11.80;;
43771;SDS011;59066;54.782;32.024;2022-11-20T13:41:31;16.30;;;7.97;;
43771;SDS011;59066;54.782;32.024;2022-11-20T13:46:50;9.98;;;7.15;;
43771;SDS011;59066;54.782;32.024;2022-11-20T13:49:20;12.60;;;7.20;;
43771;SDS011;59066;54.782;32.024;2022-11-20T13:51:51;11.02;;;7.28;;
43771;SDS011;59066;54.782;32.024;2022-11-20T14:02:39;11.82;;;7.88;;
43771;SDS011;59066;54.782;32.024;2022-11-20T14:05:14;12.88;;;7.85;;
43771;SDS011;59066;54.782;32.024;2022-11-20T14:07:48;14.45;;;7.45;;
43771;SDS011;59066;54.782;32.024;2022-11-20T14:10:24;12.85;;;8.52;;
43771;SDS011;59066;54.782;32.024;2022-11-20T14:12:57;13.38;;;7.20;;
43771;SDS011;59066;54.782;32.024;2022-11-20T14:15:32;12.40;;;7.00;;
43771;SDS011;59066;54.782;32.024;2022-11-20T14:18:11;12.40;;;8.23;;
43771;SDS011;59066;54.782;32.024;2022-11-20T14:20:41;15.75;;;8.52;;
43771;SDS011;59066;54.782;32.024;2022-11-20T14:23:09;13.82;;;8.68;;
43771;SDS011;59066;54.782;32.024;2022-11-20T14:25:41;9.60;;;6.97;;
43771;SDS011;59066;54.782;32.024;2022-11-20T14:28:10;12.18;;;6.63;;
43771;SDS011;59066;54.782;32.024;2022-11-20T14:30:46;12.70;;;7.90;;
43771;SDS011;59066;54.782;32.024;2022-11-20T14:33:15;12.90;;;7.03;;
43771;SDS011;59066;54.782;32.024;2022-11-20T14:35:47;12.20;;;6.72;;
43771;SDS011;59066;54.782;32.024;2022-11-20T14:38:26;11.52;;;7.05;;
43771;SDS011;59066;54.782;32.024;2022-11-20T14:41:05;11.43;;;7.53;;
43771;SDS011;59066;54.782;32.024;2022-11-20T14:43:36;13.13;;;8.05;;
43771;SDS011;59066;54.782;32.024;2022-11-20T14:46:08;13.23;;;9.60;;
43771;SDS011;59066;54.782;32.024;2022-11-20T14:54:14;10.80;;;6.82;;
43771;SDS011;59066;54.782;32.024;2022-11-20T14:56:53;10.07;;;5.63;;
43771;SDS011;59066;54.782;32.024;2022-11-20T14:59:31;9.60;;;6.03;;
43771;SDS011;59066;54.782;32.024;2022-11-20T15:02:04;11.00;;;6.15;;
43771;SDS011;59066;54.782;32.024;2022-11-20T15:04:48;8.67;;;4.93;;
43771;SDS011;59066;54.782;32.024;2022-11-20T15:07:24;11.45;;;5.93;;
43771;SDS011;59066;54.782;32.024;2022-11-20T15:09:59;10.95;;;6.03;;
43771;SDS011;59066;54.782;32.024;2022-11-20T15:12:45;13.05;;;6.72;;
43771;SDS011;59066;54.782;32.024;2022-11-20T15:15:23;11.13;;;5.68;;
43771;SDS011;59066;54.782;32.024;2022-11-20T15:18:14;12.65;;;6.63;;
43771;SDS011;59066;54.782;32.024;2022-11-20T15:20:44;31.60;;;15.35;;
43771;SDS011;59066;54.782;32.024;2022-11-20T15:23:15;9.23;;;6.18;;
43771;SDS011;59066;54.782;32.024;2022-11-20T15:25:45;9.35;;;6.05;;
43771;SDS011;59066;54.782;32.024;2022-11-20T15:30:45;9.70;;;6.32;;
43771;SDS011;59066;54.782;32.024;2022-11-20T15:33:13;10.25;;;6.50;;
43771;SDS011;59066;54.782;32.024;2022-11-20T15:35:42;10.80;;;6.85;;
43771;SDS011;59066;54.782;32.024;2022-11-20T15:38:10;17.58;;;10.52;;
43771;SDS011;59066;54.782;32.024;2022-11-20T15:40:37;11.63;;;6.82;;
43771;SDS011;59066;54.782;32.024;2022-11-20T15:43:05;7.90;;;5.53;;
43771;SDS011;59066;54.782;32.024;2022-11-20T15:45:40;7.45;;;5.18;;
43771;SDS011;59066;54.782;32.024;2022-11-20T15:48:35;10.13;;;5.47;;
43771;SDS011;59066;54.782;32.024;2022-11-20T15:53:47;9.73;;;6.75;;
43771;SDS011;59066;54.782;32.024;2022-11-20T15:56:15;11.07;;;6.10;;
43771;SDS011;59066;54.782;32.024;2022-11-20T15:58:42;9.10;;;5.88;;
43771;SDS011;59066;54.782;32.024;2022-11-20T16:01:14;9.52;;;6.25;;
43771;SDS011;59066;54.782;32.024;2022-11-20T16:03:43;9.75;;;5.95;;
43771;SDS011;59066;54.782;32.024;2022-11-20T16:06:12;10.10;;;6.47;;
43771;SDS011;59066;54.782;32.024;2022-11-20T16:08:40;9.43;;;6.75;;
43771;SDS011;59066;54.782;32.024;2022-11-20T16:11:13;9.45;;;6.25;;
43771;SDS011;59066;54.782;32.024;2022-11-20T16:13:43;10.07;;;7.22;;
43771;SDS011;59066;54.782;32.024;2022-11-20T16:16:35;8.82;;;6.07;;
43771;SDS011;59066;54.782;32.024;2022-11-20T16:19:04;8.52;;;5.63;;
43771;SDS011;59066;54.782;32.024;2022-11-20T16:21:32;10.75;;;7.25;;
43771;SDS011;59066;54.782;32.024;2022-11-20T16:24:02;11.65;;;6.68;;
43771;SDS011;59066;54.782;32.024;2022-11-20T16:26:31;9.43;;;6.72;;
43771;SDS011;59066;54.782;32.024;2022-11-20T16:29:00;10.20;;;6.28;;
43771;SDS011;59066;54.782;32.024;2022-11-20T16:31:29;10.32;;;5.53;;
43771;SDS011;59066;54.782;32.024;2022-11-20T16:34:01;15.30;;;7.88;;
43771;SDS011;59066;54.782;32.024;2022-11-20T16:36:35;10.20;;;6.18;;